Time;durP1;ratioP1;P1;durP2;ratioP2;P2;SDS_P1;SDS_P2;PMS_P1;PMS_P2;Temp;Humidity;BMP_temperature;BMP_pressure;BME280_temperature;BME280_humidity;BME280_pressure;Samples;Min_cycle;Max_cycle;Signal;HPM_P1;HPM_P2
2022/03/14 00:00:18;;;;;;;3.22;2.05;;;;;;;11.31;74.94;68030.06;5065130;28;20040;-84
2022/03/14 00:02:47;;;;;;;3.00;1.65;;;;;;;11.26;74.74;68024.38;5073082;28;20055;-82
2022/03/14 00:05:19;;;;;;;4.30;1.83;;;;;;;11.23;74.72;68020.97;5077280;28;20041;-88
2022/03/14 00:07:46;;;;;;;3.42;1.60;;;;;;;;;;5077543;28;29446;-86
2022/03/14 00:10:15;;;;;;;2.80;1.60;;;;;;;;;;5077108;28;20048;-85
2022/03/14 00:12:45;;;;;;;2.80;1.50;;;;;;;11.25;74.58;68025.94;5079582;28;20442;-86
2022/03/14 00:15:11;;;;;;;2.60;1.50;;;;;;;;;;5059388;28;20074;-89
2022/03/14 00:17:42;;;;;;;3.95;1.77;;;;;;;11.21;75.60;68019.28;5078523;28;20040;-88
2022/03/14 00:20:11;;;;;;;3.13;1.80;;;;;;;;;;5078298;28;20097;-90
2022/03/14 00:22:40;;;;;;;3.20;1.67;;;;;;;11.16;75.98;68013.59;5073282;28;20405;-85
2022/03/14 00:25:07;;;;;;;3.42;2.00;;;;;;;11.16;76.32;68013.03;5077754;28;20094;-88
2022/03/14 00:27:35;;;;;;;3.13;1.90;;;;;;;11.15;75.39;68017.22;5077986;28;20036;-88
2022/03/14 00:30:04;;;;;;;2.95;1.50;;;;;;;;;;5078332;28;20110;-88
2022/03/14 00:32:30;;;;;;;2.60;1.48;;;;;;;11.13;75.61;68009.63;5082067;28;20051;-89
2022/03/14 00:34:56;;;;;;;3.13;1.52;;;;;;;;;;5079954;28;20044;-86
2022/03/14 00:37:21;;;;;;;2.42;1.75;;;;;;;11.11;76.90;68007.38;5081961;28;20510;-84
2022/03/14 00:39:49;;;;;;;2.38;1.38;;;;;;;11.02;76.85;68003.03;5080346;28;20060;-86
2022/03/14 00:42:20;;;;;;;2.97;1.40;;;;;;;11.01;76.39;67996.56;5082285;28;20365;-85
2022/03/14 00:44:48;;;;;;;3.17;1.90;;;;;;;10.92;76.81;67986.91;5069954;28;20036;-88
2022/03/14 00:47:16;;;;;;;2.58;1.65;;;;;;;10.92;77.10;67986.34;5071351;28;20651;-92
2022/03/14 00:49:42;;;;;;;2.22;1.42;;;;;;;10.82;77.36;67976.13;5085966;28;20043;-82
2022/03/14 00:52:08;;;;;;;3.13;1.70;;;;;;;;;;5077466;28;20104;-82
2022/03/14 00:54:35;;;;;;;2.42;1.70;;;;;;;10.86;77.76;67979.53;5085200;28;20048;-82
2022/03/14 00:57:02;;;;;;;3.75;2.25;;;;;;;10.83;78.11;67976.72;5079529;28;20115;-85
2022/03/14 00:59:28;;;;;;;3.10;2.08;;;;;;;10.81;78.21;67974.44;5092431;28;20058;-93
2022/03/14 01:01:54;;;;;;;3.00;1.70;;;;;;;10.76;77.84;67968.75;5077296;28;20040;-87
2022/03/14 01:04:20;;;;;;;4.15;1.88;;;;;;;10.80;78.33;67973.31;5086468;28;20101;-85
2022/03/14 01:06:45;;;;;;;3.35;1.58;;;;;;;;;;5067181;28;20048;-86
2022/03/14 01:09:14;;;;;;;3.65;2.10;;;;;;;;;;5085815;28;20035;-83
2022/03/14 01:11:42;;;;;;;4.00;2.10;;;;;;;10.71;79.06;67958.34;5068666;28;20048;-86
2022/03/14 01:14:07;;;;;;;3.28;1.73;;;;;;;10.70;78.91;67961.94;5091123;28;20496;-85
2022/03/14 01:16:41;;;;;;;3.85;2.05;;;;;;;10.75;78.96;67973.50;5062650;28;20036;-86
2022/03/14 01:19:12;;;;;;;3.92;1.75;;;;;;;;;;5070608;28;20058;-86
2022/03/14 01:21:39;;;;;;;3.10;1.60;;;;;;;10.78;78.65;67971.03;5075205;28;20078;-87
2022/03/14 01:24:06;;;;;;;2.60;1.63;;;;;;;;;;5066354;28;20362;-87
2022/03/14 01:26:34;;;;;;;3.13;1.67;;;;;;;10.73;77.81;67965.34;5083543;28;20550;-84
2022/03/14 01:29:02;;;;;;;2.42;1.50;;;;;;;10.69;77.84;67960.81;5089754;28;20041;-86
2022/03/14 01:31:29;;;;;;;2.83;1.58;;;;;;;10.72;78.00;67966.88;5076661;28;20047;-86
2022/03/14 01:33:56;;;;;;;4.10;2.13;;;;;;;10.73;79.02;67973.34;5079520;28;20048;-88
2022/03/14 01:36:32;;;;;;;2.67;1.60;;;;;;;;;;5079253;28;20362;-85
2022/03/14 01:39:00;;;;;;;2.35;1.70;;;;;;;10.66;79.21;67957.97;5080582;28;20044;-86
2022/03/14 01:41:28;;;;;;;2.75;1.70;;;;;;;10.59;78.92;67950.59;5075227;28;20047;-87
2022/03/14 01:44:02;;;;;;;4.15;2.08;;;;;;;10.47;80.05;67937.00;5074307;28;20040;-85
2022/03/14 01:46:28;;;;;;;3.33;2.10;;;;;;;10.43;80.66;67932.44;5084228;28;20044;-84
2022/03/14 01:48:55;;;;;;;3.15;2.00;;;;;;;10.36;81.07;67925.06;5084548;28;20037;-87
2022/03/14 01:51:22;;;;;;;3.00;1.88;;;;;;;;;;5070562;28;20047;-81
2022/03/14 01:53:49;;;;;;;3.97;2.30;;;;;;;10.16;82.06;67897.59;5069934;28;20048;-89
2022/03/14 01:56:16;;;;;;;3.15;2.05;;;;;;;10.11;82.76;67897.25;5074065;28;20079;-82
2022/03/14 01:58:45;;;;;;;3.40;2.10;;;;;;;10.10;83.02;67895.56;5080820;28;20036;-89
2022/03/14 02:01:12;;;;;;;3.00;2.00;;;;;;;;;;5082185;28;20047;-87
2022/03/14 02:03:37;;;;;;;2.92;2.10;;;;;;;10.09;83.20;67894.41;5085086;28;20040;-85
2022/03/14 02:06:04;;;;;;;3.30;2.20;;;;;;;10.06;83.04;67891.00;5069994;28;20063;-81
2022/03/14 02:08:30;;;;;;;4.20;2.15;;;;;;;10.08;83.23;67893.28;5078884;28;20070;-86
2022/03/14 02:10:57;;;;;;;4.18;2.40;;;;;;;10.06;82.99;67886.25;5074377;28;20049;-87
2022/03/14 02:13:31;;;;;;;3.28;2.05;;;;;;;10.04;83.31;67888.72;5061725;28;20048;-84
2022/03/14 02:16:02;;;;;;;3.92;2.42;;;;;;;10.02;83.21;67889.16;5060169;28;20074;-90
2022/03/14 02:18:29;;;;;;;3.25;2.08;;;;;;;10.02;83.50;67887.03;5084948;28;20035;-85
2022/03/14 02:21:00;;;;;;;3.80;2.40;;;;;;;10.01;83.61;67885.91;5085065;28;20496;-88
2022/03/14 02:23:31;;;;;;;3.50;2.30;;;;;;;10.04;83.45;67894.06;5080085;28;20043;-86
2022/03/14 02:25:57;;;;;;;3.45;2.42;;;;;;;10.08;83.61;67895.94;5081650;28;20045;-87
2022/03/14 02:28:27;;;;;;;4.22;2.90;;;;;;;10.09;83.63;67894.97;5053781;28;20070;-88
2022/03/14 02:30:53;;;;;;;4.15;2.58;;;;;;;10.10;83.53;67896.13;5062089;28;20040;-83
2022/03/14 02:33:19;;;;;;;4.40;2.60;;;;;;;10.13;83.43;67899.53;5066582;28;20071;-88
2022/03/14 02:35:46;;;;;;;3.67;2.60;;;;;;;10.21;83.59;67912.78;5086575;28;20066;-85
2022/03/14 02:38:15;;;;;;;4.75;2.30;;;;;;;10.23;82.82;67910.28;5082608;28;20048;-86
2022/03/14 02:40:46;;;;;;;3.40;2.45;;;;;;;10.27;82.99;67914.28;5088680;28;20138;-89
2022/03/14 02:43:16;;;;;;;3.47;2.20;;;;;;;10.30;82.60;67917.69;5061632;28;20090;-86
2022/03/14 02:45:43;;;;;;;3.53;2.20;;;;;;;10.31;82.70;67919.41;5067949;28;20071;-88
2022/03/14 02:48:12;;;;;;;4.85;2.58;;;;;;;10.34;82.17;67922.78;5078729;28;20090;-86
2022/03/14 02:50:42;;;;;;;4.50;2.60;;;;;;;10.35;82.46;67926.59;5078411;28;20405;-86
2022/03/14 02:53:13;;;;;;;4.60;2.60;;;;;;;;;;5070243;28;20048;-86
2022/03/14 02:55:41;;;;;;;3.75;2.50;;;;;;;10.32;82.94;67923.19;5060029;28;20040;-89
2022/03/14 02:58:14;;;;;;;3.60;2.47;;;;;;;10.30;83.13;67918.28;5076666;28;20056;-88
2022/03/14 03:00:43;;;;;;;4.35;2.60;;;;;;;10.32;83.19;67923.19;5078410;28;20036;-89
2022/03/14 03:03:11;;;;;;;3.55;2.42;;;;;;;;;;5057428;28;20054;-91
2022/03/14 03:05:48;;;;;;;4.17;2.67;;;;;;;10.34;83.22;67922.78;5080184;28;20040;-84
2022/03/14 03:08:16;;;;;;;4.38;2.83;;;;;;;10.30;83.87;67920.34;5077340;28;20382;-84
2022/03/14 03:10:44;;;;;;;3.38;2.53;;;;;;;10.26;83.62;67913.69;5080711;28;20863;-86
2022/03/14 03:13:15;;;;;;;3.65;2.63;;;;;;;10.26;83.60;67913.13;5082615;28;20076;-86
2022/03/14 03:15:40;;;;;;;3.33;2.28;;;;;;;10.24;83.43;67913.53;5075381;28;20068;-89
2022/03/14 03:18:06;;;;;;;3.60;2.28;;;;;;;10.19;83.33;67907.88;5081053;28;20855;-87
2022/03/14 03:20:39;;;;;;;4.43;2.55;;;;;;;10.21;83.77;67910.13;5080113;28;20459;-85
2022/03/14 03:23:04;;;;;;;4.22;2.50;;;;;;;;;;5084675;28;20048;-87
2022/03/14 03:25:36;;;;;;;5.03;2.80;;;;;;;10.13;84.58;67901.63;5076393;28;20051;-86
2022/03/14 03:28:03;;;;;;;3.75;2.38;;;;;;;10.06;85.21;67891.00;5055764;28;20040;-85
2022/03/14 03:30:29;;;;;;;3.47;2.22;;;;;;;10.05;85.40;67889.88;5069709;28;20042;-87
2022/03/14 03:32:59;;;;;;;3.95;2.30;;;;;;;10.01;86.10;67885.34;5067508;28;20048;-88
2022/03/14 03:35:26;;;;;;;4.40;2.70;;;;;;;;;;5086962;28;20036;-82
2022/03/14 03:37:51;;;;;;;4.15;2.50;;;;;;;;;;5081381;28;20047;-84
2022/03/14 03:40:20;;;;;;;3.90;2.35;;;;;;;9.94;87.29;67877.97;5070099;28;20044;-87
2022/03/14 03:42:46;;;;;;;4.07;2.33;;;;;;;9.96;87.26;67885.56;5054500;28;20036;-90
2022/03/14 03:45:13;;;;;;;5.28;2.63;;;;;;;;;;5066425;28;20048;-87
2022/03/14 03:47:40;;;;;;;4.43;2.88;;;;;;;9.93;87.88;67882.72;5080571;28;20055;-88
2022/03/14 03:50:07;;;;;;;4.60;3.10;;;;;;;9.99;88.18;67886.31;5068919;28;20083;-89
2022/03/14 03:52:34;;;;;;;4.68;3.17;;;;;;;9.91;88.98;67874.56;5068045;28;20090;-85
2022/03/14 03:54:59;;;;;;;5.03;3.70;;;;;;;;;;5086521;28;20074;-86
2022/03/14 03:57:27;;;;;;;4.55;3.38;;;;;;;9.87;90.83;67872.69;5083535;28;20040;-88
2022/03/14 03:59:53;;;;;;;5.20;3.70;;;;;;;9.84;91.37;67866.63;5082851;28;20039;-86
2022/03/14 04:02:19;;;;;;;5.88;4.40;;;;;;;9.84;91.98;67867.19;5060221;28;20131;-84
2022/03/14 04:04:49;;;;;;;5.22;3.97;;;;;;;9.78;93.02;67860.41;5061068;28;20127;-86
2022/03/14 04:07:18;;;;;;;5.18;3.92;;;;;;;9.73;93.86;67854.72;5080729;28;20063;-88
2022/03/14 04:09:44;;;;;;;6.13;4.10;;;;;;;;;;5075832;28;20503;-87
2022/03/14 04:12:12;;;;;;;6.40;4.38;;;;;;;9.65;95.78;67848.88;5074390;28;20056;-85
2022/03/14 04:14:38;;;;;;;9.38;5.07;;;;;;;;;;5078610;28;20037;-86
2022/03/14 04:17:07;;;;;;;5.50;4.18;;;;;;;9.49;98.18;67831.31;5074737;28;20081;-86
2022/03/14 04:19:34;;;;;;;7.35;4.00;;;;;;;9.49;99.14;67833.38;5074541;28;20082;-87
2022/03/14 04:21:59;;;;;;;5.68;4.40;;;;;;;;;;5072178;28;20397;-85
2022/03/14 04:24:26;;;;;;;7.30;5.00;;;;;;;9.43;100.00;67826.56;5072497;28;20052;-84
2022/03/14 04:26:52;;;;;;;6.15;3.75;;;;;;;9.42;100.00;67820.13;5075331;28;20042;-85
2022/03/14 04:29:17;;;;;;;7.30;4.57;;;;;;;9.35;100.00;67812.78;5076502;28;20052;-84
2022/03/14 04:31:43;;;;;;;6.78;3.95;;;;;;;9.33;100.00;67809.94;5078548;28;20164;-90
2022/03/14 04:34:09;;;;;;;5.88;4.60;;;;;;;;;;5062753;28;20084;-84
2022/03/14 04:36:35;;;;;;;5.68;3.97;;;;;;;9.25;100.00;67807.31;5077339;28;20503;-85
2022/03/14 04:39:00;;;;;;;7.55;5.13;;;;;;;9.20;100.00;67795.75;5071534;28;20075;-85
2022/03/14 04:41:29;;;;;;;7.72;5.05;;;;;;;9.14;100.00;67792.19;5065727;28;20040;-87
2022/03/14 04:43:55;;;;;;;8.50;5.10;;;;;;;9.12;100.00;67787.28;5062973;28;20044;-89
2022/03/14 04:46:30;;;;;;;6.45;5.35;;;;;;;9.10;100.00;67787.66;5079741;28;20094;-85
2022/03/14 04:48:56;;;;;;;7.45;5.70;;;;;;;;;;5075371;28;20044;-85
2022/03/14 04:51:21;;;;;;;7.25;5.20;;;;;;;8.99;100.00;67772.53;5081371;28;20102;-86
2022/03/14 04:53:47;;;;;;;8.98;6.38;;;;;;;8.96;100.00;67774.44;5076173;28;20076;-85
2022/03/14 04:56:12;;;;;;;10.13;6.68;;;;;;;;;;5074766;28;20492;-85
2022/03/14 04:58:39;;;;;;;11.45;7.97;;;;;;;8.85;100.00;67759.31;5075870;28;20039;-83
2022/03/14 05:01:05;;;;;;;10.88;7.47;;;;;;;8.84;100.00;67758.75;5064512;28;20052;-82
2022/03/14 05:03:31;;;;;;;9.50;6.70;;;;;;;8.79;100.00;67751.00;5080742;28;20044;-87
2022/03/14 05:05:57;;;;;;;8.95;5.53;;;;;;;8.73;100.00;67748.94;5081258;28;20041;-86
2022/03/14 05:08:22;;;;;;;9.02;6.75;;;;;;;;;;5054825;28;20036;-85
2022/03/14 05:10:48;;;;;;;7.97;6.00;;;;;;;8.73;100.00;67743.63;5082833;28;20554;-88
2022/03/14 05:13:13;;;;;;;9.57;6.60;;;;;;;8.71;100.00;67741.34;5063947;28;20128;-89
2022/03/14 05:15:39;;;;;;;11.88;7.63;;;;;;;8.68;100.00;67740.63;5085232;28;20040;-88
2022/03/14 05:18:05;;;;;;;10.45;6.45;;;;;;;8.66;100.00;67738.34;5079629;28;20067;-82
2022/03/14 05:20:30;;;;;;;11.77;8.43;;;;;;;8.67;100.00;67740.06;5087997;28;20048;-81
2022/03/14 05:22:55;;;;;;;14.75;8.88;;;;;;;8.65;100.00;67740.44;5063960;28;20139;-81
2022/03/14 05:25:23;;;;;;;12.48;8.32;;;;;;;8.58;100.00;67727.22;5072119;28;20048;-86
2022/03/14 05:27:49;;;;;;;11.40;7.72;;;;;;;8.57;100.00;67729.28;5072460;28;20595;-87
2022/03/14 05:30:15;;;;;;;12.13;8.55;;;;;;;8.53;100.00;67727.41;5071187;28;20116;-85
2022/03/14 05:32:42;;;;;;;12.27;7.93;;;;;;;8.48;100.00;67719.09;5074585;28;20184;-85
2022/03/14 05:35:10;;;;;;;14.23;9.32;;;;;;;8.54;100.00;67723.22;5076926;28;20048;-82
2022/03/14 05:37:36;;;;;;;15.37;10.77;;;;;;;8.57;100.00;67726.06;5070292;28;20064;-83
2022/03/14 05:40:04;;;;;;;14.98;9.88;;;;;;;8.47;100.00;67720.63;5067219;28;20043;-85
2022/03/14 05:42:29;;;;;;;16.20;11.52;;;;;;;8.50;100.00;67723.44;5079851;28;20404;-82
2022/03/14 05:44:54;;;;;;;16.40;10.88;;;;;;;8.48;100.00;67716.44;5071438;28;20056;-88
2022/03/14 05:47:20;;;;;;;15.63;10.80;;;;;;;8.50;100.00;67724.00;5072837;28;20051;-85
2022/03/14 05:49:47;;;;;;;14.40;9.95;;;;;;;8.48;100.00;67719.09;5074148;28;20436;-83
2022/03/14 05:52:14;;;;;;;16.58;12.10;;;;;;;8.49;100.00;67719.66;5061339;28;20051;-84
2022/03/14 05:54:39;;;;;;;17.70;11.73;;;;;;;;;;5069215;28;20041;-82
2022/03/14 05:57:05;;;;;;;18.83;14.20;;;;;;;8.46;100.00;67713.59;5063849;28;20047;-86
2022/03/14 05:59:30;;;;;;;18.35;12.93;;;;;;;8.43;100.00;67710.19;5059561;28;20052;-87
2022/03/14 06:01:55;;;;;;;21.73;13.38;;;;;;;8.43;100.00;67713.44;5077272;28;20049;-85
2022/03/14 06:04:21;;;;;;;20.58;16.20;;;;;;;8.39;100.00;67711.53;5079703;28;20048;-90
2022/03/14 06:06:47;;;;;;;23.85;17.20;;;;;;;8.44;100.00;67717.22;5063624;28;20040;-82
2022/03/14 06:09:13;;;;;;;24.30;15.45;;;;;;;8.40;100.00;67712.09;5065552;28;20063;-83
2022/03/14 06:11:40;;;;;;;23.52;16.83;;;;;;;8.39;100.00;67705.69;5084554;28;20459;-85
2022/03/14 06:14:06;;;;;;;23.35;16.98;;;;;;;;;;5075049;28;20052;-85
2022/03/14 06:16:32;;;;;;;29.55;19.67;;;;;;;8.46;100.00;67716.25;5076659;28;20046;-86
2022/03/14 06:18:57;;;;;;;28.45;19.05;;;;;;;8.46;100.00;67713.59;5082571;28;22984;-88
2022/03/14 06:21:22;;;;;;;27.80;21.10;;;;;;;8.48;100.00;67715.88;5066316;28;20044;-85
2022/03/14 06:23:48;;;;;;;27.48;21.15;;;;;;;8.50;100.00;67721.34;5079626;28;20042;-87
2022/03/14 06:26:14;;;;;;;29.05;21.02;;;;;;;8.48;100.00;67721.75;5074730;28;20047;-88
2022/03/14 06:28:40;;;;;;;26.63;20.45;;;;;;;8.49;100.00;67719.66;5059441;28;20032;-84
2022/03/14 06:31:07;;;;;;;27.98;20.40;;;;;;;8.49;100.00;67719.66;5071407;28;20044;-86
2022/03/14 06:33:33;;;;;;;28.00;18.60;;;;;;;8.44;100.00;67714.00;5074902;28;20067;-88
2022/03/14 06:35:58;;;;;;;25.50;17.50;;;;;;;8.44;100.00;67711.91;5069077;28;20075;-88
2022/03/14 06:38:23;;;;;;;25.20;17.88;;;;;;;8.44;100.00;67717.22;5048321;28;20083;-86
2022/03/14 06:40:48;;;;;;;21.83;14.80;;;;;;;8.47;100.00;67717.97;5062599;28;20158;-86
2022/03/14 06:43:17;;;;;;;23.98;17.10;;;;;;;8.50;100.00;67723.44;5062915;28;20132;-86
2022/03/14 06:45:46;;;;;;;22.33;14.20;;;;;;;8.44;100.00;67714.00;5065359;28;20044;-85
2022/03/14 06:48:12;;;;;;;21.02;14.20;;;;;;;8.42;100.00;67714.94;5078391;28;20096;-92
2022/03/14 06:50:37;;;;;;;19.00;13.50;;;;;;;8.43;100.00;67710.78;5064331;28;20140;-90
2022/03/14 06:53:03;;;;;;;20.33;15.82;;;;;;;8.46;100.00;67713.59;5067442;28;20132;-85
2022/03/14 06:55:28;;;;;;;19.77;12.55;;;;;;;8.45;100.00;67715.69;5071866;28;20048;-85
2022/03/14 06:57:54;;;;;;;15.95;11.43;;;;;;;8.43;100.00;67710.19;5066516;28;20099;-83
2022/03/14 07:00:20;;;;;;;15.52;10.68;;;;;;;8.38;100.00;67705.09;5072289;28;20070;-85
2022/03/14 07:02:46;;;;;;;16.83;10.55;;;;;;;;;;5070728;28;20036;-83
2022/03/14 07:05:15;;;;;;;15.80;10.43;;;;;;;8.33;100.00;67699.44;5068947;28;20045;-87
2022/03/14 07:07:40;;;;;;;15.23;11.18;;;;;;;8.35;100.00;67704.34;5075355;28;20563;-88
2022/03/14 07:10:07;;;;;;;13.68;9.88;;;;;;;8.33;100.00;67700.00;5056764;28;20082;-87
2022/03/14 07:12:37;;;;;;;14.32;10.35;;;;;;;8.33;100.00;67702.63;5079159;28;20389;-89
2022/03/14 07:15:02;;;;;;;;;;;;;;;8.33;100.00;67700.00;5068583;28;20048;-88
2022/03/14 07:17:27;;;;;;;14.32;9.27;;;;;;;;;;5069465;28;19923;-89
2022/03/14 07:19:53;;;;;;;16.10;10.38;;;;;;;8.25;100.00;67690.94;5065562;28;20078;-88
2022/03/14 07:22:19;;;;;;;14.77;11.20;;;;;;;8.27;100.00;67695.84;5078069;28;20043;-89
2022/03/14 07:24:47;;;;;;;15.27;10.23;;;;;;;8.26;100.00;67686.75;5054632;28;20065;-88
2022/03/14 07:27:15;;;;;;;14.70;11.15;;;;;;;8.25;100.00;67693.56;5073947;28;20120;-86
2022/03/14 07:29:40;;;;;;;14.40;10.65;;;;;;;8.28;100.00;67693.75;5066064;28;20480;-91
2022/03/14 07:32:06;;;;;;;15.77;10.95;;;;;;;8.28;100.00;67694.31;5074835;28;20059;-86
2022/03/14 07:34:32;;;;;;;15.90;9.73;;;;;;;8.26;100.00;67692.06;5075827;28;20040;-88
2022/03/14 07:36:58;;;;;;;15.13;11.60;;;;;;;8.26;100.00;67692.06;5072780;28;20059;-90
2022/03/14 07:39:23;;;;;;;14.77;10.70;;;;;;;8.26;100.00;67692.06;5074401;28;20044;-90
2022/03/14 07:41:48;;;;;;;16.13;10.35;;;;;;;8.23;100.00;67688.09;5045043;28;20481;-88
2022/03/14 07:44:17;;;;;;;14.63;10.43;;;;;;;8.21;100.00;67686.41;5070966;28;20484;-89
2022/03/14 07:46:42;;;;;;;17.48;11.65;;;;;;;8.23;100.00;67693.41;5055847;28;20047;-89
2022/03/14 07:49:08;;;;;;;18.45;12.70;;;;;;;8.22;100.00;67690.19;5062679;28;20408;-86
2022/03/14 07:51:34;;;;;;;19.25;12.55;;;;;;;8.19;100.00;67684.13;5063473;28;20044;-88
2022/03/14 07:54:01;;;;;;;20.58;12.02;;;;;;;8.22;100.00;67686.97;5074288;28;20258;-86
2022/03/14 07:56:26;;;;;;;18.67;13.30;;;;;;;8.18;100.00;67683.00;5068828;28;20044;-88
2022/03/14 07:58:58;;;;;;;16.77;11.57;;;;;;;8.26;100.00;67694.16;5071371;28;20058;-85
2022/03/14 08:01:24;;;;;;;18.83;11.50;;;;;;;8.27;100.00;67693.19;5089624;28;20074;-87
2022/03/14 08:03:49;;;;;;;18.42;11.88;;;;;;;8.27;100.00;67695.84;5051907;28;20035;-86
2022/03/14 08:06:18;;;;;;;20.08;13.27;;;;;;;8.26;100.00;67691.50;5075049;28;20116;-88
2022/03/14 08:08:45;;;;;;;18.05;12.77;;;;;;;8.23;100.00;67693.97;5074107;28;20036;-88
2022/03/14 08:11:11;;;;;;;18.67;10.90;;;;;;;8.28;100.00;67694.31;5057374;28;20075;-88
2022/03/14 08:13:38;;;;;;;20.08;14.60;;;;;;;8.28;100.00;67693.75;5064412;28;20051;-88
2022/03/14 08:16:10;;;;;;;19.40;13.27;;;;;;;8.26;100.00;67694.72;5058980;28;20048;-84
2022/03/14 08:18:39;;;;;;;21.38;13.10;;;;;;;8.32;100.00;67701.50;5073863;28;20549;-88
2022/03/14 08:21:04;;;;;;;19.65;12.48;;;;;;;8.33;100.00;67704.72;5074160;28;20446;-89
2022/03/14 08:23:30;;;;;;;22.02;12.82;;;;;;;;;;5055656;28;20238;-88
2022/03/14 08:25:57;;;;;;;20.20;12.68;;;;;;;8.39;100.00;67708.34;5077683;28;20052;-85
2022/03/14 08:28:31;;;;;;;21.00;16.13;;;;;;;8.43;100.00;67712.84;5054773;28;20131;-86
2022/03/14 08:30:57;;;;;;;21.92;12.63;;;;;;;8.43;100.00;67716.09;5050165;28;21576;-85
2022/03/14 08:33:22;;;;;;;21.77;14.57;;;;;;;8.47;100.00;67720.03;5074188;28;20158;-86
2022/03/14 08:35:48;;;;;;;19.85;12.90;;;;;;;;;;5059527;28;20331;-86
2022/03/14 08:38:13;;;;;;;19.17;13.80;;;;;;;8.46;100.00;67713.59;5069839;28;20079;-90
2022/03/14 08:40:40;;;;;;;19.88;13.73;;;;;;;8.52;100.00;67720.41;5077386;28;20130;-88
2022/03/14 08:43:06;;;;;;;20.73;12.93;;;;;;;8.52;100.00;67715.09;5078000;28;20432;-91
2022/03/14 08:45:34;;;;;;;21.45;12.93;;;;;;;8.58;100.00;67727.78;5073290;28;20036;-92
2022/03/14 08:48:00;;;;;;;18.17;14.50;;;;;;;8.62;100.00;67734.38;5078877;28;20052;-85
2022/03/14 08:50:28;;;;;;;17.92;11.75;;;;;;;8.61;100.00;67735.91;5073961;28;20047;-91
2022/03/14 08:52:56;;;;;;;19.63;11.63;;;;;;;8.57;100.00;67729.28;5063222;28;20044;-89
2022/03/14 08:55:22;;;;;;;21.40;14.30;;;;;;;8.68;100.00;67743.28;5049436;28;20183;-86
2022/03/14 08:57:54;;;;;;;23.73;13.80;;;;;;;8.70;100.00;67740.81;5052380;28;20070;-90
2022/03/14 09:00:24;;;;;;;18.83;12.07;;;;;;;;;;5079925;28;20527;-91
2022/03/14 09:02:51;;;;;;;18.48;13.73;;;;;;;8.73;100.00;67743.63;5080550;28;20404;-85
2022/03/14 09:05:17;;;;;;;21.42;13.63;;;;;;;8.72;100.00;67745.72;5062028;28;20048;-85
2022/03/14 09:07:45;;;;;;;23.27;12.77;;;;;;;8.74;100.00;67744.75;5049512;28;20086;-87
2022/03/14 09:10:17;;;;;;;18.75;11.68;;;;;;;8.79;100.00;67753.66;5061659;28;20040;-87
2022/03/14 09:12:43;;;;;;;19.48;11.63;;;;;;;8.76;100.00;67747.59;5064651;28;20066;-85
2022/03/14 09:15:12;;;;;;;20.55;11.07;;;;;;;;;;5078785;28;20051;-89
2022/03/14 09:17:56;;;;;;;23.98;11.95;;;;;;;;;;5073413;28;20095;-91
2022/03/14 09:20:24;;;;;;;20.08;13.48;;;;;;;8.92;100.00;67769.91;5072163;28;20098;-88
2022/03/14 09:22:51;;;;;;;25.30;14.63;;;;;;;8.97;100.00;67770.25;5070257;28;20039;-85
2022/03/14 09:25:18;;;;;;;23.20;12.98;;;;;;;9.00;100.00;67776.31;5076958;28;20048;-89
2022/03/14 09:27:48;;;;;;;19.73;12.27;;;;;;;9.01;100.00;67777.47;5076007;28;20039;-88
2022/03/14 09:30:15;;;;;;;20.02;13.63;;;;;;;9.08;100.00;67782.72;5073833;28;20496;-92
2022/03/14 09:32:43;;;;;;;20.95;13.23;;;;;;;9.04;100.00;67778.75;5076031;28;20045;-87
2022/03/14 09:35:09;;;;;;;19.02;13.70;;;;;;;9.11;100.00;67786.13;5073601;28;20043;-87
2022/03/14 09:37:38;;;;;;;22.52;13.00;;;;;;;9.10;100.00;67790.31;5062109;28;20044;-90
2022/03/14 09:40:05;;;;;;;18.92;12.40;;;;;;;;;;5072166;28;20063;-88
2022/03/14 09:42:37;;;;;;;20.77;12.90;;;;;;;9.18;100.00;67793.50;5086176;28;20040;-84
2022/03/14 09:45:05;;;;;;;20.52;13.48;;;;;;;9.21;100.00;67797.47;5083064;28;20471;-86
2022/03/14 09:47:36;;;;;;;21.85;13.80;;;;;;;9.23;100.00;67804.47;5083605;28;20067;-91
2022/03/14 09:50:03;;;;;;;21.42;13.43;;;;;;;9.29;100.00;67808.03;5073837;28;20063;-85
2022/03/14 09:52:29;;;;;;;19.60;12.63;;;;;;;9.26;100.00;67805.22;5065921;28;20128;-93
2022/03/14 09:54:57;;;;;;;19.55;12.98;;;;;;;9.40;100.00;67817.88;5075705;28;20040;-89
2022/03/14 09:57:22;;;;;;;20.08;12.27;;;;;;;9.35;100.00;67812.19;5059986;28;20036;-87
2022/03/14 09:59:49;;;;;;;19.15;12.55;;;;;;;9.41;100.00;67824.31;5077248;28;20042;-85
2022/03/14 10:02:15;;;;;;;21.75;12.80;;;;;;;9.51;100.00;67830.34;5084429;28;20104;-86
2022/03/14 10:04:40;;;;;;;22.23;17.13;;;;;;;9.54;100.00;67833.19;5053612;28;20054;-87
2022/03/14 10:07:07;;;;;;;21.92;13.18;;;;;;;9.55;100.00;67834.88;5075443;28;20127;-88
2022/03/14 10:09:35;;;;;;;23.23;14.40;;;;;;;9.62;100.00;67842.81;5083121;28;20064;-86
2022/03/14 10:12:01;;;;;;;21.92;14.10;;;;;;;9.62;100.00;67842.25;5064234;28;20516;-90
2022/03/14 10:14:26;;;;;;;22.90;14.57;;;;;;;9.63;100.00;67846.59;5089876;28;20059;-87
2022/03/14 10:16:56;;;;;;;23.85;14.90;;;;;;;9.69;100.00;67858.72;5076855;28;20048;-85
2022/03/14 10:19:36;;;;;;;23.80;14.85;;;;;;;9.72;100.00;67853.56;5082515;28;20044;-88
2022/03/14 10:22:19;;;;;;;21.75;14.18;;;;;;;9.71;100.00;67858.31;5064894;28;20446;-89
2022/03/14 10:24:46;;;;;;;20.38;14.63;;;;;;;9.77;100.00;67859.25;5066413;28;20040;-90
2022/03/14 10:27:17;;;;;;;22.20;14.95;;;;;;;9.80;100.00;67862.66;5070228;28;20396;-86
2022/03/14 10:29:43;;;;;;;21.67;13.50;;;;;;;9.85;100.00;67868.31;5079758;28;20055;-92
2022/03/14 10:32:31;;;;;;;21.67;13.85;;;;;;;;;;5070671;28;20040;-88
2022/03/14 10:35:07;;;;;;;26.40;18.48;;;;;;;9.93;100.00;67877.41;5081159;28;20040;-92
2022/03/14 10:37:35;;;;;;;24.58;14.70;;;;;;;9.90;100.00;67873.44;5079031;28;20361;-88
2022/03/14 10:40:08;;;;;;;22.88;16.33;;;;;;;9.98;100.00;67882.50;5072710;28;20132;-84
2022/03/14 10:42:39;;;;;;;26.30;15.82;;;;;;;10.03;100.00;67888.16;5083320;28;20121;-85
2022/03/14 10:45:17;;;;;;;26.83;16.33;;;;;;;10.11;100.00;67896.69;5050375;28;20170;-88
2022/03/14 10:47:56;;;;;;;26.10;15.60;;;;;;;10.08;99.52;67895.94;5077306;28;20071;-87
2022/03/14 10:50:35;;;;;;;;;;;;;;;10.13;99.94;67898.97;5080626;28;20393;-88
2022/03/14 10:53:18;;;;;;;22.10;12.57;;;;;;;10.02;98.74;67886.47;5080960;28;19992;-87
2022/03/14 10:55:47;;;;;;;24.30;14.45;;;;;;;10.08;98.95;67893.28;5078572;28;20497;-88
2022/03/14 10:58:19;;;;;;;25.30;17.42;;;;;;;10.13;100.00;67901.63;5077152;28;20052;-85
2022/03/14 11:00:56;;;;;;;24.20;15.65;;;;;;;10.17;99.15;67906.72;5081231;28;20089;-88
2022/03/14 11:03:37;;;;;;;26.88;16.75;;;;;;;10.18;97.89;67909.94;5071965;28;20105;-89
2022/03/14 11:06:03;;;;;;;23.67;15.55;;;;;;;10.14;97.30;67905.41;5067268;28;20038;-87
2022/03/14 11:08:42;;;;;;;23.50;14.23;;;;;;;10.21;96.75;67902.13;5078680;28;20044;-86
2022/03/14 11:11:22;;;;;;;23.83;13.93;;;;;;;;;;5079967;28;20060;-88
2022/03/14 11:13:55;;;;;;;22.38;17.52;;;;;;;10.56;96.83;67952.53;5079553;28;20072;-88
2022/03/14 11:16:26;;;;;;;24.55;17.45;;;;;;;10.67;95.28;67959.09;5077519;28;20079;-86
2022/03/14 11:18:52;;;;;;;27.90;15.85;;;;;;;10.80;95.29;67973.31;5065920;28;20033;-86
2022/03/14 11:21:21;;;;;;;26.33;15.55;;;;;;;10.85;93.21;67978.97;5085072;28;20043;-84
2022/03/14 11:23:49;;;;;;;23.58;16.15;;;;;;;10.74;93.62;67966.50;5080494;28;20051;-86
2022/03/14 11:26:18;;;;;;;27.13;16.88;;;;;;;10.74;93.67;67971.81;5086488;28;20162;-90
2022/03/14 11:28:47;;;;;;;22.63;15.07;;;;;;;10.61;93.21;67955.53;5081651;28;20085;-85
2022/03/14 11:31:12;;;;;;;23.02;14.40;;;;;;;;;;5086545;28;20105;-84
2022/03/14 11:33:41;;;;;;;21.20;14.20;;;;;;;10.74;92.94;67966.50;5080383;28;20045;-86
2022/03/14 11:36:07;;;;;;;;;;;;;;;10.80;91.09;67973.31;5084939;28;20110;-88
2022/03/14 11:38:34;;;;;;;24.45;16.40;;;;;;;10.76;92.59;67968.75;5070110;28;19915;-87
2022/03/14 11:41:00;;;;;;;28.58;16.58;;;;;;;11.00;92.26;67995.44;5078069;28;20047;-90
2022/03/14 11:43:27;;;;;;;26.38;17.15;;;;;;;11.38;91.51;68032.13;5079529;28;20048;-87
2022/03/14 11:45:58;;;;;;;24.80;17.00;;;;;;;11.44;89.14;68050.16;5079333;28;20409;-92
2022/03/14 11:48:30;;;;;;;22.05;16.55;;;;;;;11.50;88.75;68051.63;5064990;28;20093;-91